F/v.manga-reva — FGRC — position and weather

sailwx.info

Track history (hours):
 
Tides and Currents Weather Stations Pressure Air Temp Water Temp Dewpoint Dewpoint Depression Visibility Wind Speed Wind Dir Waves Ship Positions

F/v.manga-reva

Last reported at 2018-Jun-21 03:09 UTC. Time now 2018-Jun-21 08:43 UTC.
Position N 47°47' W 004°35'.

Length 16 m; draft 3.2 m.

Type: Fishing. MMSI: 228332000.

Date/timePositionNaut miles runAvg speedWind from/ knotsBaromVisibWave heightAir tempDewpointWater temp
2018-Jun-21 03:09N 47°47' W 004°35'210.0
2018-Jun-21 03:00N 47°47' W 004°32'4 0.2
2018-Jun-20 06:34N 47°49' W 004°37'4 1.2
2018-Jun-20 02:59N 47°47' W 004°31'10 0.8
2018-Jun-19 15:12N 47°48' W 004°17'13 2.6
2018-Jun-19 10:04N 47°49' W 004°37'0 3.2
2018-Jun-19 09:57N 47°49' W 004°36'3 0.1
2018-Jun-18 07:23N 47°48' W 004°33'1 3.1
2018-Jun-18 06:57N 47°49' W 004°34'1 2.3
2018-Jun-18 06:26N 47°49' W 004°35'  
2018-Jun-14 06:26N 47°27' W 004°27'5 2.3
2018-Jun-14 04:11N 47°22' W 004°29'1 2.8
2018-Jun-14 03:56N 47°21' W 004°29'1 2.9
2018-Jun-14 03:27N 47°22' W 004°27'15 0.3
2018-Jun-12 04:06N 47°37' W 004°28'0 3.3
2018-Jun-12 03:58N 47°37' W 004°28'2 3.5
2018-Jun-12 03:30N 47°38' W 004°26'  
Track history (hours):
 
Tides and Currents Weather Stations Pressure Air Temp Water Temp Dewpoint Dewpoint Depression Visibility Wind Speed Wind Dir Waves Ship Positions

F/v.manga-reva

Last reported at 2018-Jun-21 03:09 UTC. Time now 2018-Jun-21 08:43 UTC.
Position N 47°47' W 004°35'.

Length 16 m; draft 3.2 m.

Type: Fishing. MMSI: 228332000.

Date/timePositionNaut miles runAvg speedWind from/ knotsBaromVisibWave heightAir tempDewpointWater temp
2018-Jun-21 03:09N 47°47' W 004°35'210.0
2018-Jun-21 03:00N 47°47' W 004°32'4 0.2
2018-Jun-20 06:34N 47°49' W 004°37'4 1.2
2018-Jun-20 02:59N 47°47' W 004°31'10 0.8
2018-Jun-19 15:12N 47°48' W 004°17'13 2.6
2018-Jun-19 10:04N 47°49' W 004°37'0 3.2
2018-Jun-19 09:57N 47°49' W 004°36'3 0.1
2018-Jun-18 07:23N 47°48' W 004°33'1 3.1
2018-Jun-18 06:57N 47°49' W 004°34'1 2.3
2018-Jun-18 06:26N 47°49' W 004°35'  
2018-Jun-14 06:26N 47°27' W 004°27'5 2.3
2018-Jun-14 04:11N 47°22' W 004°29'1 2.8
2018-Jun-14 03:56N 47°21' W 004°29'1 2.9
2018-Jun-14 03:27N 47°22' W 004°27'15 0.3
2018-Jun-12 04:06N 47°37' W 004°28'0 3.3
2018-Jun-12 03:58N 47°37' W 004°28'2 3.5
2018-Jun-12 03:30N 47°38' W 004°26'  

Dump ship's entire track history